Observations for LAWRENCE MUNICIPAL, MA (LWM)

KLWM 112254Z 00000KT 10SM CLR M01/M09 A2999 RMK AO2 SLP156 T10111094
KLWM 112154Z 00000KT 10SM CLR 00/M10 A2999 RMK AO2 SLP157 T00001100 
KLWM 112054Z 14003KT 10SM CLR 02/M09 A3000 RMK AO2 SLP159 T00221094 56025   
KLWM 111954Z 22004KT 10SM CLR 03/M09 A3002 RMK AO2 SLP167 T00281094 
KLWM 111854Z 26005KT 10SM CLR 03/M09 A3003 RMK AO2 SLP169 T00281094 
KLWM 111754Z 25005KT 10SM CLR 02/M11 A3007 RMK AO2 SLP185 T00221106 10022 21072 56034   
KLWM 111654Z 26004KT 10SM CLR 01/M11 A3010 RMK AO2 SLP194 T00111111 
KLWM 111554Z 27003KT 10SM CLR M01/M11 A3012 RMK AO2 SLP200 T10061106
KLWM 111454Z 00000KT 10SM CLR M02/M11 A3017 RMK AO2 SLP218 T10221106 58013  
KLWM 111354Z 00000KT 10SM CLR M04/M11 A3020 RMK AO2 SLP227 T10391106
KLWM 111254Z 00000KT 10SM CLR M06/M12 A3020 RMK AO2 SLP228 T10561117
KLWM 111201Z 00000KT 10SM SCT024 M07/M12 A3021 RMK AO2 T10671122
KLWM 111154Z 00000KT 10SM BKN024 M06/M12 A3021 RMK AO2 SLP231 T10611117 11050 21072 53002   
KLWM 111054Z AUTO 00000KT 10SM OVC027 M06/M11 A3021 RMK AO2 SLP232 T10611111
KLWM 110954Z AUTO 00000KT 10SM BKN026 M06/M12 A3020 RMK AO2 SLP227 T10611117
KLWM 110854Z AUTO 00000KT 10SM BKN027 M07/M12 A3020 RMK AO2 SLP229 T10721122 50001  
KLWM 110754Z AUTO 00000KT 10SM CLR M06/M12 A3021 RMK AO2 SLP230 T10611122   
KLWM 110654Z AUTO 29003KT 10SM CLR M05/M12 A3021 RMK AO2 SLP231 T10501122   
KLWM 110554Z AUTO 29003KT 10SM CLR M05/M12 A3020 RMK AO2 SLP228 T10501122 11011 21056 51004 
KLWM 110454Z AUTO 00000KT 10SM CLR M05/M12 A3019 RMK AO2 SLP226 T10501122 400331056 
KLWM 110354Z AUTO 34004KT 10SM CLR M04/M13 A3020 RMK AO2 SLP227 T10441128   
KLWM 110254Z 01005KT 10SM CLR M04/M12 A3019 RMK AO2 SLP224 T10391122 51007  
KLWM 110154Z 00000KT 10SM CLR M03/M12 A3019 RMK AO2 SLP224 T10281122
KLWM 110054Z 35005KT 10SM CLR M02/M12 A3018 RMK AO2 SLP220 T10221122
KLWM 102354Z 35005KT 10SM CLR M02/M12 A3017 RMK AO2 SLP217 T10171117 10033 21017 53014  
KLWM 102254Z 35006KT 10SM CLR M01/M12 A3015 RMK AO2 SLP210 T10061117